Time;durP1;ratioP1;P1;durP2;ratioP2;P2;SDS_P1;SDS_P2;PMS_P1;PMS_P2;Temp;Humidity;BMP_temperature;BMP_pressure;BME280_temperature;BME280_humidity;BME280_pressure;Samples;Min_cycle;Max_cycle;Signal;HPM_P1;HPM_P2
2023/08/08 00:01:05;;;;;;;5.87;1.90;;;;;;;;;;5118337;27;20026;-59
2023/08/08 00:03:30;;;;;;;7.13;2.00;;;;;;;;;;5126854;27;20102;-61
2023/08/08 00:05:56;;;;;;;5.80;1.90;;;;;;;;;;5118618;27;20136;-61
2023/08/08 00:08:21;;;;;;;5.57;1.80;;;;;;;;;;5118476;27;20098;-60
2023/08/08 00:10:46;;;;;;;6.28;1.70;;;;;;;;;;5128988;27;20391;-61
2023/08/08 00:13:11;;;;;;;6.22;1.52;;;;;;;;;;5114784;27;20015;-60
2023/08/08 00:15:36;;;;;;;9.63;2.38;;;;;;;;;;5114013;28;20023;-60
2023/08/08 00:18:01;;;;;;;5.03;1.77;;;;;;;;;;5113992;28;20840;-60
2023/08/08 00:20:27;;;;;;;6.20;1.70;;;;;;;;;;5113203;28;20058;-60
2023/08/08 00:22:52;;;;;;;4.67;1.70;;;;;;;;;;5113668;27;20028;-64
2023/08/08 00:25:17;;;;;;;4.20;1.50;;;;;;;;;;5113784;27;20168;-60
2023/08/08 00:27:43;;;;;;;6.57;1.48;;;;;;;;;;5125596;27;20015;-61
2023/08/08 00:30:08;;;;;;;;;;;;;;;;;;5136186;27;20030;-61
2023/08/08 00:32:34;;;;;;;5.47;1.50;;;;;;;;;;5134893;27;19904;-58
2023/08/08 00:34:59;;;;;;;5.53;1.70;;;;;;;;;;5134792;27;20023;-59
2023/08/08 00:37:24;;;;;;;5.13;2.00;;;;;;;;;;5123030;27;20093;-61
2023/08/08 00:39:49;;;;;;;5.70;2.00;;;;;;;;;;5114783;28;20015;-60
2023/08/08 00:42:14;;;;;;;6.03;1.50;;;;;;;;;;5115344;28;20475;-60
2023/08/08 00:44:40;;;;;;;7.90;1.90;;;;;;;;;;5113794;28;20035;-59
2023/08/08 00:47:06;;;;;;;5.70;1.80;;;;;;;;;;5144147;27;20466;-59
2023/08/08 00:49:31;;;;;;;5.35;1.50;;;;;;;;;;5154796;27;20026;-59
2023/08/08 00:51:57;;;;;;;7.17;1.97;;;;;;;;;;5154433;27;20018;-59
2023/08/08 00:54:22;;;;;;;4.80;1.77;;;;;;;;;;5153930;27;20019;-59
2023/08/08 00:56:47;;;;;;;8.15;1.77;;;;;;;;;;5154683;27;20022;-59
2023/08/08 00:59:13;;;;;;;8.20;1.48;;;;;;;;;;5154249;27;20030;-60
2023/08/08 01:01:38;;;;;;;5.65;1.70;;;;;;;;;;5154623;27;20114;-59
2023/08/08 01:04:06;;;;;;;5.33;1.63;;;;;;;;;;5145592;27;20505;-60
2023/08/08 01:06:38;;;;;;;5.53;1.80;;;;;;;;;;5133627;27;20782;-60
2023/08/08 01:09:09;;;;;;;7.70;2.42;;;;;;;;;;5133828;27;20076;-60
2023/08/08 01:11:34;;;;;;;5.05;1.77;;;;;;;;;;5133752;27;20444;-59
2023/08/08 01:14:00;;;;;;;6.32;1.50;;;;;;;;;;5133494;27;20023;-59
2023/08/08 01:16:26;;;;;;;5.93;1.80;;;;;;;;;;5133457;27;20386;-60
2023/08/08 01:18:52;;;;;;;5.85;2.15;;;;;;;;;;5133294;27;20034;-61
2023/08/08 01:21:17;;;;;;;6.25;1.70;;;;;;;;;;5133890;27;20015;-60
2023/08/08 01:23:51;;;;;;;5.32;1.65;;;;;;;;;;5117008;27;20023;-59
2023/08/08 01:26:17;;;;;;;5.95;1.73;;;;;;;;;;5113002;28;20054;-60
2023/08/08 01:28:43;;;;;;;5.93;1.85;;;;;;;;;;5112705;28;20051;-60
2023/08/08 01:31:08;;;;;;;6.90;1.73;;;;;;;;;;5117608;27;20025;-60
2023/08/08 01:33:33;;;;;;;4.50;1.63;;;;;;;;;;5122883;27;20019;-62
2023/08/08 01:36:02;;;;;;;6.43;1.57;;;;;;;;;;5113207;27;20727;-60
2023/08/08 01:38:33;;;;;;;5.72;1.88;;;;;;;;;;5114409;27;20028;-61
2023/08/08 01:40:59;;;;;;;5.18;1.73;;;;;;;;;;5125045;27;20542;-60
2023/08/08 01:43:25;;;;;;;6.35;1.70;;;;;;;;;;5112707;27;20036;-60
2023/08/08 01:45:50;;;;;;;7.72;1.92;;;;;;;;;;5119396;27;20039;-61
2023/08/08 01:48:15;;;;;;;4.20;1.70;;;;;;;;;;5126075;27;20470;-60
2023/08/08 01:50:41;;;;;;;6.37;2.00;;;;;;;;;;5113068;28;20015;-60
2023/08/08 01:53:06;;;;;;;7.90;1.90;;;;;;;;;;5114966;27;20020;-63
2023/08/08 01:55:31;;;;;;;4.80;1.70;;;;;;;;;;5113963;27;20042;-59
2023/08/08 01:57:56;;;;;;;6.50;1.90;;;;;;;;;;5111825;27;20065;-59
2023/08/08 02:00:22;;;;;;;5.10;1.93;;;;;;;;;;5113519;27;20012;-59
2023/08/08 02:02:47;;;;;;;6.85;2.13;;;;;;;;;;5118041;27;20471;-59
2023/08/08 02:05:12;;;;;;;5.30;1.80;;;;;;;;;;5116585;27;20085;-60
2023/08/08 02:07:37;;;;;;;5.90;1.53;;;;;;;;;;5132571;27;20076;-60
2023/08/08 02:10:03;;;;;;;6.80;1.97;;;;;;;;;;5135874;27;20064;-60
2023/08/08 02:12:29;;;;;;;6.78;2.13;;;;;;;;;;5123012;27;20028;-62
2023/08/08 02:14:55;;;;;;;3.85;1.50;;;;;;;;;;5111114;28;20020;-59
2023/08/08 02:17:20;;;;;;;6.10;1.70;;;;;;;;;;5116084;27;20095;-61
2023/08/08 02:19:45;;;;;;;4.10;1.60;;;;;;;;;;5128695;27;20023;-61
2023/08/08 02:22:11;;;;;;;4.70;1.70;;;;;;;;;;5113341;27;20022;-60
2023/08/08 02:24:36;;;;;;;4.82;1.80;;;;;;;;;;5121117;27;20034;-59
2023/08/08 02:27:02;;;;;;;4.73;1.40;;;;;;;;;;5115017;27;20499;-58
2023/08/08 02:29:27;;;;;;;5.78;1.75;;;;;;;;;;5111599;27;20019;-58
2023/08/08 02:31:52;;;;;;;5.47;1.67;;;;;;;;;;5114572;27;20114;-63
2023/08/08 02:34:17;;;;;;;7.70;1.70;;;;;;;;;;5111188;28;20038;-61
2023/08/08 02:36:42;;;;;;;4.83;1.60;;;;;;;;;;5111281;28;20510;-59
2023/08/08 02:39:07;;;;;;;5.43;1.67;;;;;;;;;;5119710;27;20027;-60
2023/08/08 02:41:32;;;;;;;6.47;1.60;;;;;;;;;;5111247;28;20027;-61
2023/08/08 02:43:58;;;;;;;6.40;1.50;;;;;;;;;;5110254;28;20072;-60
2023/08/08 02:46:23;;;;;;;5.43;1.50;;;;;;;;;;5111396;28;20039;-60
2023/08/08 02:48:48;;;;;;;10.07;1.73;;;;;;;;;;5115070;27;20023;-59
2023/08/08 02:51:13;;;;;;;5.70;1.63;;;;;;;;;;5111328;28;20035;-61
2023/08/08 02:53:38;;;;;;;5.70;1.43;;;;;;;;;;5111064;28;20536;-61
2023/08/08 02:56:04;;;;;;;5.97;1.55;;;;;;;;;;5118378;27;20015;-60
2023/08/08 02:58:29;;;;;;;5.13;1.73;;;;;;;;;;5112905;27;20034;-61
2023/08/08 03:00:54;;;;;;;6.77;1.87;;;;;;;;;;5115748;28;20070;-59
2023/08/08 03:03:19;;;;;;;7.17;1.60;;;;;;;;;;5115361;27;20027;-59
2023/08/08 03:05:46;;;;;;;5.93;1.50;;;;;;;;;;5113585;28;20051;-60
2023/08/08 03:08:11;;;;;;;3.75;1.48;;;;;;;;;;5126663;28;20098;-61
2023/08/08 03:10:36;;;;;;;7.63;1.57;;;;;;;;;;5128739;27;20500;-58
2023/08/08 03:13:01;;;;;;;5.73;1.80;;;;;;;;;;5115121;27;20023;-60
2023/08/08 03:15:27;;;;;;;5.68;1.83;;;;;;;;;;5110518;28;20465;-59
2023/08/08 03:17:52;;;;;;;4.70;1.70;;;;;;;;;;5112520;28;20027;-63
2023/08/08 03:20:17;;;;;;;6.80;1.70;;;;;;;;;;5113438;28;20387;-59
2023/08/08 03:22:42;;;;;;;3.93;1.30;;;;;;;;;;5113886;28;20080;-58
2023/08/08 03:25:07;;;;;;;5.57;1.90;;;;;;;;;;5110477;28;20019;-59
2023/08/08 03:27:33;;;;;;;4.90;1.60;;;;;;;;;;5109654;28;20057;-60
2023/08/08 03:29:58;;;;;;;4.13;1.60;;;;;;;;;;5110956;28;20023;-59
2023/08/08 03:32:23;;;;;;;6.10;1.45;;;;;;;;;;5110618;28;20072;-61
2023/08/08 03:34:48;;;;;;;5.73;1.50;;;;;;;;;;5115102;28;20470;-59
2023/08/08 03:37:13;;;;;;;7.87;1.70;;;;;;;;;;5110814;28;20106;-60
2023/08/08 03:39:38;;;;;;;4.97;1.50;;;;;;;;;;5119259;28;20459;-61
2023/08/08 03:42:04;;;;;;;4.80;1.53;;;;;;;;;;5113754;27;20027;-62
2023/08/08 03:44:29;;;;;;;6.05;1.65;;;;;;;;;;5110079;28;20071;-59
2023/08/08 03:46:54;;;;;;;4.00;1.40;;;;;;;;;;5110990;28;20398;-60
2023/08/08 03:49:19;;;;;;;4.67;1.23;;;;;;;;;;5118355;27;20015;-60
2023/08/08 03:51:44;;;;;;;4.50;1.40;;;;;;;;;;5115429;28;20035;-60
2023/08/08 03:54:09;;;;;;;5.37;1.47;;;;;;;;;;5113616;28;20038;-63
2023/08/08 03:56:35;;;;;;;5.17;1.40;;;;;;;;;;5112464;27;20011;-59
2023/08/08 03:59:00;;;;;;;4.93;1.40;;;;;;;;;;5118610;27;20046;-62
2023/08/08 04:01:25;;;;;;;4.87;1.73;;;;;;;;;;5134840;27;20076;-60
2023/08/08 04:03:50;;;;;;;4.07;1.77;;;;;;;;;;5114405;27;20031;-61
2023/08/08 04:06:15;;;;;;;4.57;1.70;;;;;;;;;;5117995;27;20132;-59
2023/08/08 04:08:40;;;;;;;4.70;1.80;;;;;;;;;;5114773;28;20112;-60
2023/08/08 04:11:06;;;;;;;5.32;1.70;;;;;;;;;;5115448;27;20032;-60
2023/08/08 04:13:31;;;;;;;5.03;1.53;;;;;;;;;;5115217;27;20031;-59
2023/08/08 04:15:56;;;;;;;5.03;1.50;;;;;;;;;;5116200;27;20478;-60
2023/08/08 04:18:21;;;;;;;5.53;1.50;;;;;;;;;;5117235;28;20020;-59
2023/08/08 04:20:47;;;;;;;6.20;1.40;;;;;;;;;;5120986;27;20026;-58
2023/08/08 04:23:12;;;;;;;4.38;1.45;;;;;;;;;;5114598;28;20493;-62
2023/08/08 04:25:37;;;;;;;4.70;1.33;;;;;;;;;;5114344;27;20038;-60
2023/08/08 04:28:03;;;;;;;4.13;1.30;;;;;;;;;;5114305;28;20026;-60
2023/08/08 04:30:28;;;;;;;5.65;1.40;;;;;;;;;;5124244;27;20023;-61
2023/08/08 04:32:53;;;;;;;4.67;1.40;;;;;;;;;;5123288;27;20105;-60
2023/08/08 04:35:19;;;;;;;4.90;1.30;;;;;;;;;;5123564;27;20076;-60
2023/08/08 04:37:44;;;;;;;5.13;1.43;;;;;;;;;;5132599;27;20030;-59
2023/08/08 04:40:09;;;;;;;6.03;1.23;;;;;;;;;;5116138;27;20510;-60
2023/08/08 04:42:35;;;;;;;5.47;1.20;;;;;;;;;;5113412;27;20020;-60
2023/08/08 04:45:00;;;;;;;6.17;1.60;;;;;;;;;;5113239;28;20119;-61
2023/08/08 04:47:25;;;;;;;4.78;1.42;;;;;;;;;;5113247;27;20080;-61
2023/08/08 04:49:50;;;;;;;3.40;1.17;;;;;;;;;;5118775;27;20471;-62
2023/08/08 04:52:15;;;;;;;5.17;1.30;;;;;;;;;;5133943;27;20023;-58
2023/08/08 04:54:41;;;;;;;4.27;1.30;;;;;;;;;;5129465;27;20015;-59
2023/08/08 04:57:06;;;;;;;4.80;1.40;;;;;;;;;;5131227;27;20704;-60
2023/08/08 04:59:31;;;;;;;3.92;1.33;;;;;;;;;;5129242;27;20217;-60
2023/08/08 05:01:56;;;;;;;4.20;1.40;;;;;;;;;;5126500;27;20387;-61
2023/08/08 05:04:22;;;;;;;4.67;1.40;;;;;;;;;;5117201;27;20402;-61
2023/08/08 05:06:47;;;;;;;3.13;1.20;;;;;;;;;;5121720;27;20031;-62
2023/08/08 05:09:12;;;;;;;3.92;1.30;;;;;;;;;;5117167;27;20012;-63
2023/08/08 05:11:37;;;;;;;4.93;1.42;;;;;;;;;;5138396;27;20022;-62
2023/08/08 05:14:02;;;;;;;3.97;1.50;;;;;;;;;;5154243;27;20011;-61
2023/08/08 05:16:28;;;;;;;4.80;1.33;;;;;;;;;;5154600;27;20029;-60
2023/08/08 05:18:53;;;;;;;5.10;1.30;;;;;;;;;;5154865;27;20033;-61
2023/08/08 05:21:19;;;;;;;5.30;1.60;;;;;;;;;;5145717;27;20011;-61
2023/08/08 05:23:44;;;;;;;3.97;1.10;;;;;;;;;;5113689;27;20031;-61
2023/08/08 05:26:09;;;;;;;3.77;1.30;;;;;;;;;;5132104;27;20019;-59
2023/08/08 05:28:34;;;;;;;4.87;1.20;;;;;;;;;;5121147;27;20065;-61
2023/08/08 05:30:59;;;;;;;4.25;1.40;;;;;;;;;;5148561;27;20051;-62
2023/08/08 05:33:25;;;;;;;4.10;1.33;;;;;;;;;;5123518;27;20451;-60
2023/08/08 05:35:50;;;;;;;5.77;1.37;;;;;;;;;;5150635;27;20103;-62
2023/08/08 05:38:15;;;;;;;3.67;1.03;;;;;;;;;;5150471;27;20030;-60
2023/08/08 05:40:41;;;;;;;5.80;1.40;;;;;;;;;;5149943;27;20407;-61
2023/08/08 05:43:06;;;;;;;5.18;1.55;;;;;;;;;;5150207;27;20029;-60
2023/08/08 05:45:31;;;;;;;4.18;1.40;;;;;;;;;;5144950;27;20015;-62
2023/08/08 05:47:57;;;;;;;4.03;1.42;;;;;;;;;;5129408;27;20507;-61
2023/08/08 05:50:22;;;;;;;5.13;1.30;;;;;;;;;;5129213;27;20027;-60
2023/08/08 05:52:47;;;;;;;6.47;1.60;;;;;;;;;;5128871;27;20022;-61
2023/08/08 05:55:13;;;;;;;2.93;1.20;;;;;;;;;;5128838;27;20038;-61
2023/08/08 05:57:38;;;;;;;4.60;1.30;;;;;;;;;;5122024;27;20029;-62
2023/08/08 06:00:04;;;;;;;3.78;1.27;;;;;;;;;;5113703;27;20463;-62
2023/08/08 06:02:30;;;;;;;4.82;1.30;;;;;;;;;;5118736;27;20023;-61
2023/08/08 06:04:55;;;;;;;3.15;1.08;;;;;;;;;;5108181;28;20578;-61
2023/08/08 06:07:20;;;;;;;3.42;1.20;;;;;;;;;;5112754;27;20045;-60
2023/08/08 06:09:46;;;;;;;5.33;1.40;;;;;;;;;;5113058;27;20081;-59
2023/08/08 06:12:11;;;;;;;4.97;1.40;;;;;;;;;;5110812;27;20027;-60
2023/08/08 06:14:36;;;;;;;4.20;1.17;;;;;;;;;;5119575;27;20027;-60
2023/08/08 06:17:01;;;;;;;3.30;1.33;;;;;;;;;;5120103;27;20103;-60
2023/08/08 06:19:26;;;;;;;4.20;1.30;;;;;;;;;;5108376;27;20015;-60
2023/08/08 06:21:51;;;;;;;3.83;1.20;;;;;;;;;;5110314;27;20414;-59
2023/08/08 06:24:17;;;;;;;5.13;1.37;;;;;;;;;;5107738;27;20050;-60
2023/08/08 06:26:42;;;;;;;4.23;1.50;;;;;;;;;;5111753;27;20495;-61
2023/08/08 06:29:07;;;;;;;5.33;1.50;;;;;;;;;;5115016;27;20050;-62
2023/08/08 06:31:32;;;;;;;4.40;1.30;;;;;;;;;;5116347;27;20027;-62
2023/08/08 06:33:57;;;;;;;3.77;1.20;;;;;;;;;;5144739;27;20508;-60
2023/08/08 06:36:23;;;;;;;3.70;1.35;;;;;;;;;;5116251;27;20028;-62
2023/08/08 06:38:48;;;;;;;5.10;1.33;;;;;;;;;;5116493;27;20093;-60
2023/08/08 06:41:13;;;;;;;3.53;1.30;;;;;;;;;;5115139;27;20119;-60
2023/08/08 06:43:39;;;;;;;3.47;1.30;;;;;;;;;;5110531;28;20038;-60
2023/08/08 06:46:04;;;;;;;4.40;1.23;;;;;;;;;;5114724;27;20027;-59
2023/08/08 06:48:29;;;;;;;4.28;1.30;;;;;;;;;;5111200;28;20023;-62
2023/08/08 06:50:54;;;;;;;3.93;1.20;;;;;;;;;;5110885;27;20031;-60
2023/08/08 06:53:20;;;;;;;2.93;1.13;;;;;;;;;;5114264;27;20023;-60
2023/08/08 06:55:45;;;;;;;3.77;1.27;;;;;;;;;;5118206;27;20038;-63
2023/08/08 06:58:10;;;;;;;6.07;1.60;;;;;;;;;;5132625;27;20364;-59
2023/08/08 07:00:35;;;;;;;3.47;1.17;;;;;;;;;;5123068;27;20433;-59
2023/08/08 07:03:00;;;;;;;3.70;1.07;;;;;;;;;;5111111;28;20039;-61
2023/08/08 07:05:26;;;;;;;4.77;1.30;;;;;;;;;;5109811;28;20065;-60
2023/08/08 07:07:51;;;;;;;3.77;1.33;;;;;;;;;;5111271;28;20028;-59
2023/08/08 07:10:16;;;;;;;5.17;1.23;;;;;;;;;;5110080;27;20612;-60
2023/08/08 07:12:42;;;;;;;4.57;1.30;;;;;;;;;;5111328;28;20016;-62
2023/08/08 07:15:07;;;;;;;4.03;1.10;;;;;;;;;;5113678;28;20464;-57
2023/08/08 07:17:33;;;;;;;3.67;1.15;;;;;;;;;;5131815;27;20019;-60
2023/08/08 07:19:58;;;;;;;3.80;1.10;;;;;;;;;;5131711;27;20076;-61
2023/08/08 07:22:23;;;;;;;4.73;1.50;;;;;;;;;;5129005;27;20493;-58
2023/08/08 07:24:48;;;;;;;4.67;1.47;;;;;;;;;;5112731;27;20028;-61
2023/08/08 07:27:13;;;;;;;5.07;1.20;;;;;;;;;;5110237;28;20035;-60
2023/08/08 07:29:39;;;;;;;4.37;1.43;;;;;;;;;;5110840;28;20475;-60
2023/08/08 07:32:04;;;;;;;3.63;1.27;;;;;;;;;;5114472;28;20027;-60
2023/08/08 07:34:30;;;;;;;3.63;1.20;;;;;;;;;;5114401;27;20543;-61
2023/08/08 07:36:56;;;;;;;4.15;1.30;;;;;;;;;;5114252;27;20023;-59
2023/08/08 07:39:21;;;;;;;4.68;1.20;;;;;;;;;;5114537;28;20024;-60
2023/08/08 07:41:46;;;;;;;5.63;1.10;;;;;;;;;;5121214;27;20030;-59
2023/08/08 07:44:11;;;;;;;2.87;1.10;;;;;;;;;;5115052;27;20032;-60
2023/08/08 07:46:36;;;;;;;3.60;1.20;;;;;;;;;;5114859;28;20539;-60
2023/08/08 07:49:03;;;;;;;5.10;1.20;;;;;;;;;;5114688;28;20051;-60
2023/08/08 07:51:29;;;;;;;4.95;1.48;;;;;;;;;;5126411;27;20019;-61
2023/08/08 07:53:54;;;;;;;3.67;1.30;;;;;;;;;;5124351;27;20144;-60
2023/08/08 07:56:19;;;;;;;5.80;1.50;;;;;;;;;;5135347;27;20047;-59
2023/08/08 07:58:44;;;;;;;4.35;1.40;;;;;;;;;;5135379;27;20466;-61
2023/08/08 08:01:11;;;;;;;4.60;1.50;;;;;;;;;;5134574;27;20035;-61
2023/08/08 08:03:36;;;;;;;5.45;1.23;;;;;;;;;;5116501;27;20031;-63
2023/08/08 08:06:02;;;;;;;5.07;1.20;;;;;;;;;;5113608;27;20024;-61
2023/08/08 08:08:27;;;;;;;3.40;1.05;;;;;;;;;;5132248;27;20649;-61
2023/08/08 08:10:52;;;;;;;4.37;1.20;;;;;;;;;;5113918;27;20103;-61
2023/08/08 08:13:17;;;;;;;3.63;1.10;;;;;;;;;;5113355;27;20011;-61
2023/08/08 08:15:43;;;;;;;3.43;1.00;;;;;;;;;;5114170;28;20390;-61
2023/08/08 08:18:08;;;;;;;4.22;1.30;;;;;;;;;;5113974;27;20527;-61
2023/08/08 08:20:33;;;;;;;3.93;1.20;;;;;;;;;;5114521;28;20024;-59
2023/08/08 08:22:59;;;;;;;5.63;1.30;;;;;;;;;;5114209;28;20559;-59
2023/08/08 08:25:24;;;;;;;4.07;1.15;;;;;;;;;;5113666;28;20520;-58
2023/08/08 08:27:49;;;;;;;3.20;1.17;;;;;;;;;;5113794;28;20023;-58
2023/08/08 08:30:15;;;;;;;4.33;1.10;;;;;;;;;;5113033;27;20024;-60
2023/08/08 08:32:41;;;;;;;3.20;1.17;;;;;;;;;;5113650;28;20015;-60
2023/08/08 08:35:07;;;;;;;3.70;1.20;;;;;;;;;;5113568;28;20027;-60
2023/08/08 08:37:33;;;;;;;3.08;1.10;;;;;;;;;;5126691;27;20104;-60
2023/08/08 08:39:58;;;;;;;2.95;1.00;;;;;;;;;;5134240;27;20027;-60
2023/08/08 08:42:24;;;;;;;4.50;1.20;;;;;;;;;;5133685;27;20011;-60
2023/08/08 08:44:49;;;;;;;4.70;1.08;;;;;;;;;;5133557;27;20033;-61
2023/08/08 08:47:17;;;;;;;3.33;1.20;;;;;;;;;;5134337;27;20189;-59
2023/08/08 08:49:45;;;;;;;3.60;1.00;;;;;;;;;;5136799;27;20015;-60
2023/08/08 08:52:10;;;;;;;4.95;1.00;;;;;;;;;;5153412;27;20045;-60
2023/08/08 08:54:36;;;;;;;6.05;1.30;;;;;;;;;;5133691;27;20102;-60
2023/08/08 08:57:01;;;;;;;2.83;1.00;;;;;;;;;;5132692;27;20058;-62
2023/08/08 08:59:26;;;;;;;5.90;1.08;;;;;;;;;;5133657;27;20083;-60
2023/08/08 09:01:51;;;;;;;2.57;0.90;;;;;;;;;;5133811;27;20111;-61
2023/08/08 09:04:18;;;;;;;4.15;1.10;;;;;;;;;;5118905;27;20039;-60
2023/08/08 09:06:43;;;;;;;4.68;1.20;;;;;;;;;;5113342;28;20069;-61
2023/08/08 09:09:09;;;;;;;2.83;1.10;;;;;;;;;;5113196;28;20023;-61
2023/08/08 09:11:34;;;;;;;5.70;1.17;;;;;;;;;;5113467;28;20019;-59
2023/08/08 09:14:00;;;;;;;5.17;1.20;;;;;;;;;;5112355;27;20020;-59
2023/08/08 09:16:25;;;;;;;4.47;1.30;;;;;;;;;;5113082;28;20050;-63
2023/08/08 09:18:50;;;;;;;2.83;1.08;;;;;;;;;;5112890;28;20023;-59
2023/08/08 09:21:15;;;;;;;3.65;1.20;;;;;;;;;;5112952;28;20034;-60
2023/08/08 09:23:41;;;;;;;3.97;1.10;;;;;;;;;;5112522;28;20380;-59
2023/08/08 09:26:06;;;;;;;2.90;1.20;;;;;;;;;;5112807;28;20459;-58
2023/08/08 09:28:31;;;;;;;3.33;1.27;;;;;;;;;;5112623;28;20107;-59
2023/08/08 09:30:57;;;;;;;3.33;1.20;;;;;;;;;;5112901;28;20099;-60
2023/08/08 09:33:22;;;;;;;3.78;1.25;;;;;;;;;;5112305;28;20153;-61
2023/08/08 09:35:47;;;;;;;3.47;1.20;;;;;;;;;;5115181;27;20062;-58
2023/08/08 09:38:12;;;;;;;5.10;1.30;;;;;;;;;;5113852;28;20378;-61
2023/08/08 09:40:38;;;;;;;3.30;1.13;;;;;;;;;;5115689;28;20112;-58
2023/08/08 09:43:06;;;;;;;5.35;1.35;;;;;;;;;;5115368;28;20027;-60
2023/08/08 09:45:44;;;;;;;3.10;1.05;;;;;;;;;;5113113;28;20445;-60
2023/08/08 09:48:09;;;;;;;4.40;1.20;;;;;;;;;;5112873;28;20088;-59
2023/08/08 09:50:35;;;;;;;3.70;1.20;;;;;;;;;;5112562;28;20479;-61
2023/08/08 09:53:01;;;;;;;5.90;1.30;;;;;;;;;;5126487;27;20549;-61
2023/08/08 09:55:26;;;;;;;4.70;1.50;;;;;;;;;;5112401;28;20106;-61
2023/08/08 09:57:52;;;;;;;3.20;1.23;;;;;;;;;;5112410;28;20107;-60
2023/08/08 10:00:17;;;;;;;4.25;1.65;;;;;;;;;;5112419;28;20020;-59
2023/08/08 10:02:44;;;;;;;3.38;1.20;;;;;;;;;;5112586;28;20048;-61
2023/08/08 10:05:09;;;;;;;5.38;1.67;;;;;;;;;;5112106;28;20027;-58
2023/08/08 10:07:35;;;;;;;3.70;1.30;;;;;;;;;;5112457;28;20024;-61
2023/08/08 10:10:00;;;;;;;3.60;1.20;;;;;;;;;;5112416;28;20011;-59
2023/08/08 10:12:26;;;;;;;4.20;1.33;;;;;;;;;;5111997;28;20022;-61
2023/08/08 10:14:51;;;;;;;4.03;1.27;;;;;;;;;;5111812;28;20058;-60
2023/08/08 10:17:17;;;;;;;4.93;1.40;;;;;;;;;;5112314;28;20076;-60
2023/08/08 10:19:53;;;;;;;6.57;1.23;;;;;;;;;;5112822;28;20652;-59
2023/08/08 10:22:20;;;;;;;4.22;1.35;;;;;;;;;;5112075;28;20046;-60
2023/08/08 10:24:47;;;;;;;3.88;1.40;;;;;;;;;;5110946;28;20505;-61
2023/08/08 10:27:15;;;;;;;4.07;1.45;;;;;;;;;;5111565;28;20024;-60
2023/08/08 10:29:40;;;;;;;4.70;1.40;;;;;;;;;;5111765;28;20026;-61
2023/08/08 10:32:06;;;;;;;3.85;1.20;;;;;;;;;;5111161;28;20020;-61
2023/08/08 10:34:31;;;;;;;;;;;;;;;;;;5111733;28;20137;-59
2023/08/08 10:36:57;;;;;;;3.10;1.17;;;;;;;;;;5111287;28;19979;-59
2023/08/08 10:39:24;;;;;;;5.90;1.15;;;;;;;;;;5110470;28;20026;-59
2023/08/08 10:41:50;;;;;;;4.57;1.10;;;;;;;;;;5111418;28;20023;-59
2023/08/08 10:44:23;;;;;;;3.75;1.10;;;;;;;;;;5110914;28;20022;-59
2023/08/08 10:46:48;;;;;;;3.67;1.20;;;;;;;;;;5111407;28;20027;-61
2023/08/08 10:49:14;;;;;;;3.20;1.17;;;;;;;;;;5112638;27;20028;-59
2023/08/08 10:51:45;;;;;;;2.72;1.10;;;;;;;;;;5112023;27;20019;-61
2023/08/08 10:54:14;;;;;;;4.05;1.50;;;;;;;;;;5110404;28;20058;-59
2023/08/08 10:56:40;;;;;;;4.45;1.60;;;;;;;;;;5111242;28;20036;-61
2023/08/08 10:59:13;;;;;;;4.00;1.20;;;;;;;;;;5110656;28;20112;-62
2023/08/08 11:01:38;;;;;;;3.97;1.30;;;;;;;;;;5110047;28;20041;-61
2023/08/08 11:04:05;;;;;;;2.80;0.98;;;;;;;;;;5110500;28;20534;-60
2023/08/08 11:06:32;;;;;;;3.30;1.10;;;;;;;;;;5110791;28;20111;-61
2023/08/08 11:08:57;;;;;;;4.55;1.20;;;;;;;;;;5111123;28;20123;-60
2023/08/08 11:11:23;;;;;;;3.53;1.42;;;;;;;;;;5111121;28;20451;-59
2023/08/08 11:13:50;;;;;;;4.33;1.63;;;;;;;;;;5110577;28;20019;-60
2023/08/08 11:16:16;;;;;;;5.03;1.48;;;;;;;;;;5111017;28;20035;-60
2023/08/08 11:18:42;;;;;;;3.75;0.88;;;;;;;;;;5111373;28;20031;-58
2023/08/08 11:21:11;;;;;;;3.47;1.10;;;;;;;;;;5110842;28;20012;-61
2023/08/08 11:23:38;;;;;;;4.53;1.40;;;;;;;;;;5110531;28;20051;-59
2023/08/08 11:26:03;;;;;;;4.38;1.40;;;;;;;;;;5111125;28;20124;-61
2023/08/08 11:28:28;;;;;;;3.83;1.30;;;;;;;;;;5110928;28;20059;-61
2023/08/08 11:30:53;;;;;;;3.70;1.05;;;;;;;;;;5110968;28;20498;-60
2023/08/08 11:33:18;;;;;;;4.07;1.20;;;;;;;;;;5110425;28;20490;-59
2023/08/08 11:35:48;;;;;;;3.27;1.23;;;;;;;;;;5110208;28;20026;-59
2023/08/08 11:38:14;;;;;;;4.43;1.30;;;;;;;;;;5111498;28;20016;-59
2023/08/08 11:40:39;;;;;;;4.30;1.40;;;;;;;;;;5111166;28;20042;-59
2023/08/08 11:43:05;;;;;;;5.03;1.20;;;;;;;;;;5110394;28;20020;-59
2023/08/08 11:45:31;;;;;;;3.58;1.27;;;;;;;;;;5110229;28;20020;-60
2023/08/08 11:47:56;;;;;;;3.53;1.10;;;;;;;;;;5111057;28;20019;-62
2023/08/08 11:50:23;;;;;;;3.77;1.27;;;;;;;;;;5127672;28;20478;-59
2023/08/08 11:52:48;;;;;;;4.47;1.38;;;;;;;;;;5130798;27;20622;-59
2023/08/08 11:55:13;;;;;;;3.45;1.17;;;;;;;;;;5131148;27;20107;-60
2023/08/08 11:57:40;;;;;;;3.70;1.47;;;;;;;;;;5131102;28;20084;-59
2023/08/08 12:00:07;;;;;;;;;;;;;;;;;;5131749;27;20542;-62
2023/08/08 12:02:32;;;;;;;4.43;1.23;;;;;;;;;;5131204;27;19904;-60
2023/08/08 12:05:03;;;;;;;3.60;1.13;;;;;;;;;;5130500;27;20147;-60
2023/08/08 12:07:31;;;;;;;3.50;1.05;;;;;;;;;;5131162;27;20019;-61
2023/08/08 12:09:56;;;;;;;5.18;1.15;;;;;;;;;;5131232;27;20023;-60
2023/08/08 12:12:21;;;;;;;3.17;1.10;;;;;;;;;;5130914;28;20646;-60
2023/08/08 12:14:47;;;;;;;3.30;1.20;;;;;;;;;;5130232;28;20030;-61
2023/08/08 12:17:12;;;;;;;3.80;1.20;;;;;;;;;;5132425;27;20015;-60
2023/08/08 12:19:44;;;;;;;2.60;1.03;;;;;;;;;;5130188;27;20020;-61
2023/08/08 12:22:10;;;;;;;;;;;;;;;;;;5124255;27;20453;-61
2023/08/08 12:24:35;;;;;;;5.10;1.10;;;;;;;;;;5134288;27;20362;-61
2023/08/08 12:27:00;;;;;;;3.93;1.20;;;;;;;;;;5123896;27;20015;-60
2023/08/08 12:29:25;;;;;;;4.00;1.20;;;;;;;;;;5113905;28;20036;-59
2023/08/08 12:31:50;;;;;;;4.20;1.25;;;;;;;;;;5113804;28;20020;-60
2023/08/08 12:34:15;;;;;;;3.50;1.20;;;;;;;;;;5113558;28;20133;-59
2023/08/08 12:36:41;;;;;;;4.53;1.10;;;;;;;;;;5113671;28;20020;-59
2023/08/08 12:39:06;;;;;;;4.00;1.20;;;;;;;;;;5113696;28;20014;-59
2023/08/08 12:41:31;;;;;;;3.50;1.27;;;;;;;;;;5113697;28;20016;-62
2023/08/08 12:43:56;;;;;;;3.90;1.13;;;;;;;;;;5111732;27;20043;-58
2023/08/08 12:46:21;;;;;;;3.60;1.30;;;;;;;;;;5113302;28;20027;-62
2023/08/08 12:48:47;;;;;;;3.80;1.40;;;;;;;;;;5129225;27;20099;-58
2023/08/08 12:51:12;;;;;;;5.88;1.50;;;;;;;;;;5133989;27;20019;-59
2023/08/08 12:53:37;;;;;;;4.10;1.07;;;;;;;;;;5133353;27;20022;-61
2023/08/08 12:56:03;;;;;;;3.67;1.30;;;;;;;;;;5133821;27;20011;-59
2023/08/08 12:58:28;;;;;;;3.83;1.20;;;;;;;;;;5134005;27;20020;-60
2023/08/08 13:00:53;;;;;;;3.03;0.90;;;;;;;;;;5134099;27;20429;-61
2023/08/08 13:03:19;;;;;;;3.33;1.17;;;;;;;;;;5131767;27;20031;-60
2023/08/08 13:05:44;;;;;;;3.87;1.20;;;;;;;;;;5125681;27;20569;-61
2023/08/08 13:08:09;;;;;;;3.67;1.23;;;;;;;;;;5113226;28;20506;-60
2023/08/08 13:10:35;;;;;;;4.13;1.17;;;;;;;;;;5113149;28;20418;-61
2023/08/08 13:13:00;;;;;;;2.42;1.00;;;;;;;;;;5113087;28;20026;-60
2023/08/08 13:15:26;;;;;;;2.75;1.20;;;;;;;;;;5112615;28;20072;-61
2023/08/08 13:17:51;;;;;;;3.27;1.10;;;;;;;;;;5112973;28;20106;-60
2023/08/08 13:20:16;;;;;;;3.60;1.30;;;;;;;;;;5113747;28;20024;-61
2023/08/08 13:22:42;;;;;;;3.27;1.10;;;;;;;;;;5112866;28;20455;-62
2023/08/08 13:25:07;;;;;;;3.03;1.10;;;;;;;;;;5112405;28;20445;-59
2023/08/08 13:27:32;;;;;;;4.35;1.30;;;;;;;;;;5112716;28;20099;-60
2023/08/08 13:29:58;;;;;;;3.70;1.40;;;;;;;;;;5112678;28;20012;-60
2023/08/08 13:32:23;;;;;;;2.78;1.10;;;;;;;;;;5112698;28;20028;-61
2023/08/08 13:34:48;;;;;;;3.83;1.30;;;;;;;;;;5112326;27;20076;-59
2023/08/08 13:37:14;;;;;;;3.90;1.17;;;;;;;;;;5113029;27;20023;-60
2023/08/08 13:39:39;;;;;;;3.25;1.20;;;;;;;;;;5112679;27;20020;-58
2023/08/08 13:42:04;;;;;;;3.53;1.20;;;;;;;;;;5111113;28;20019;-58
2023/08/08 13:44:30;;;;;;;4.87;1.33;;;;;;;;;;5111907;28;20543;-59
2023/08/08 13:46:57;;;;;;;4.35;1.27;;;;;;;;;;5122895;27;20528;-59
2023/08/08 13:49:26;;;;;;;3.65;1.50;;;;;;;;;;5133204;27;20076;-58
2023/08/08 13:51:51;;;;;;;7.15;1.40;;;;;;;;;;5133114;27;20026;-59
2023/08/08 13:54:16;;;;;;;4.17;1.33;;;;;;;;;;5132716;27;20019;-61
2023/08/08 13:56:41;;;;;;;3.23;1.00;;;;;;;;;;5131398;27;20391;-60
2023/08/08 13:59:06;;;;;;;5.37;1.20;;;;;;;;;;5132564;27;20390;-59
2023/08/08 14:01:31;;;;;;;3.90;1.30;;;;;;;;;;5132648;27;20583;-58
2023/08/08 14:03:57;;;;;;;3.92;1.30;;;;;;;;;;5132001;27;20486;-59
2023/08/08 14:06:22;;;;;;;4.83;1.63;;;;;;;;;;5133253;27;20106;-59
2023/08/08 14:08:48;;;;;;;3.47;1.30;;;;;;;;;;5133491;27;20030;-59
2023/08/08 14:11:13;;;;;;;5.25;1.10;;;;;;;;;;5132816;27;20011;-59
2023/08/08 14:13:39;;;;;;;3.70;1.20;;;;;;;;;;5129280;27;20084;-58
2023/08/08 14:16:04;;;;;;;3.53;1.17;;;;;;;;;;5132684;27;20570;-61
2023/08/08 14:18:29;;;;;;;5.50;1.30;;;;;;;;;;5132710;27;20043;-61
2023/08/08 14:20:54;;;;;;;3.90;1.10;;;;;;;;;;5132685;27;20018;-61
2023/08/08 14:23:21;;;;;;;3.33;1.20;;;;;;;;;;5117654;27;20095;-59
2023/08/08 14:25:46;;;;;;;3.50;1.10;;;;;;;;;;5113383;28;20491;-61
2023/08/08 14:28:11;;;;;;;3.60;1.20;;;;;;;;;;5113462;28;20027;-59
2023/08/08 14:30:37;;;;;;;4.45;1.10;;;;;;;;;;5113937;28;20415;-61
2023/08/08 14:33:02;;;;;;;4.75;1.42;;;;;;;;;;5112425;28;20027;-59